sensor_id;sensor_type;location;lat;lon;timestamp;P1;durP1;ratioP1;P2;durP2;ratioP2
40871;SDS011;26591;43.264;26.940;2022-07-06T00:01:45;4.57;;;2.90;;
40871;SDS011;26591;43.264;26.940;2022-07-06T00:04:11;4.47;;;2.83;;
40871;SDS011;26591;43.264;26.940;2022-07-06T00:06:37;4.47;;;2.90;;
40871;SDS011;26591;43.264;26.940;2022-07-06T00:09:03;6.40;;;3.28;;
40871;SDS011;26591;43.264;26.940;2022-07-06T00:11:29;6.35;;;3.03;;
40871;SDS011;26591;43.264;26.940;2022-07-06T00:13:55;7.78;;;3.08;;
40871;SDS011;26591;43.264;26.940;2022-07-06T00:16:21;6.22;;;3.22;;
40871;SDS011;26591;43.264;26.940;2022-07-06T00:18:47;9.00;;;4.85;;
40871;SDS011;26591;43.264;26.940;2022-07-06T00:21:13;7.20;;;3.30;;
40871;SDS011;26591;43.264;26.940;2022-07-06T00:23:38;6.93;;;3.30;;
40871;SDS011;26591;43.264;26.940;2022-07-06T00:26:04;13.57;;;3.08;;
40871;SDS011;26591;43.264;26.940;2022-07-06T00:28:30;6.25;;;3.67;;
40871;SDS011;26591;43.264;26.940;2022-07-06T00:30:56;7.55;;;3.40;;
40871;SDS011;26591;43.264;26.940;2022-07-06T00:33:21;5.18;;;3.20;;
40871;SDS011;26591;43.264;26.940;2022-07-06T00:35:47;4.00;;;3.08;;
40871;SDS011;26591;43.264;26.940;2022-07-06T00:38:13;4.82;;;3.20;;
40871;SDS011;26591;43.264;26.940;2022-07-06T00:40:39;5.35;;;3.22;;
40871;SDS011;26591;43.264;26.940;2022-07-06T00:43:04;3.97;;;2.83;;
40871;SDS011;26591;43.264;26.940;2022-07-06T00:45:30;7.75;;;3.25;;
40871;SDS011;26591;43.264;26.940;2022-07-06T00:47:59;6.20;;;3.00;;
40871;SDS011;26591;43.264;26.940;2022-07-06T00:50:24;5.28;;;2.85;;
40871;SDS011;26591;43.264;26.940;2022-07-06T00:52:57;4.70;;;3.10;;
40871;SDS011;26591;43.264;26.940;2022-07-06T00:55:30;11.70;;;2.88;;
40871;SDS011;26591;43.264;26.940;2022-07-06T00:58:01;4.63;;;3.42;;
40871;SDS011;26591;43.264;26.940;2022-07-06T01:00:28;12.20;;;3.15;;
40871;SDS011;26591;43.264;26.940;2022-07-06T01:02:54;6.53;;;3.50;;
40871;SDS011;26591;43.264;26.940;2022-07-06T01:05:20;5.55;;;3.28;;
40871;SDS011;26591;43.264;26.940;2022-07-06T01:07:46;5.85;;;3.22;;
40871;SDS011;26591;43.264;26.940;2022-07-06T01:10:14;6.82;;;3.60;;
40871;SDS011;26591;43.264;26.940;2022-07-06T01:12:41;10.30;;;3.38;;
40871;SDS011;26591;43.264;26.940;2022-07-06T01:15:13;5.18;;;3.30;;
40871;SDS011;26591;43.264;26.940;2022-07-06T01:17:43;5.05;;;3.42;;
40871;SDS011;26591;43.264;26.940;2022-07-06T01:20:12;7.03;;;3.05;;
40871;SDS011;26591;43.264;26.940;2022-07-06T01:22:48;9.30;;;3.92;;
40871;SDS011;26591;43.264;26.940;2022-07-06T01:25:15;6.05;;;3.47;;
40871;SDS011;26591;43.264;26.940;2022-07-06T01:27:42;8.98;;;3.15;;
40871;SDS011;26591;43.264;26.940;2022-07-06T01:30:09;7.15;;;2.97;;
40871;SDS011;26591;43.264;26.940;2022-07-06T01:32:37;6.15;;;3.35;;
40871;SDS011;26591;43.264;26.940;2022-07-06T01:35:07;6.10;;;3.67;;
40871;SDS011;26591;43.264;26.940;2022-07-06T01:37:34;5.20;;;3.13;;
40871;SDS011;26591;43.264;26.940;2022-07-06T01:40:01;9.60;;;3.53;;
40871;SDS011;26591;43.264;26.940;2022-07-06T01:42:28;7.18;;;3.28;;
40871;SDS011;26591;43.264;26.940;2022-07-06T01:44:54;7.10;;;3.30;;
40871;SDS011;26591;43.264;26.940;2022-07-06T01:47:20;3.80;;;2.90;;
40871;SDS011;26591;43.264;26.940;2022-07-06T01:49:45;5.57;;;3.13;;
40871;SDS011;26591;43.264;26.940;2022-07-06T01:52:11;5.00;;;3.22;;
40871;SDS011;26591;43.264;26.940;2022-07-06T01:54:36;7.90;;;3.72;;
40871;SDS011;26591;43.264;26.940;2022-07-06T01:57:03;9.73;;;3.00;;
40871;SDS011;26591;43.264;26.940;2022-07-06T01:59:28;7.10;;;3.45;;
40871;SDS011;26591;43.264;26.940;2022-07-06T02:01:54;4.93;;;3.25;;
40871;SDS011;26591;43.264;26.940;2022-07-06T02:04:20;9.88;;;3.78;;
40871;SDS011;26591;43.264;26.940;2022-07-06T02:06:45;8.05;;;3.65;;
40871;SDS011;26591;43.264;26.940;2022-07-06T02:09:11;8.52;;;3.53;;
40871;SDS011;26591;43.264;26.940;2022-07-06T02:11:36;9.02;;;4.10;;
40871;SDS011;26591;43.264;26.940;2022-07-06T02:14:02;9.20;;;3.60;;
40871;SDS011;26591;43.264;26.940;2022-07-06T02:16:28;7.65;;;3.85;;
40871;SDS011;26591;43.264;26.940;2022-07-06T02:18:53;4.80;;;3.58;;
40871;SDS011;26591;43.264;26.940;2022-07-06T02:21:19;6.95;;;4.00;;
40871;SDS011;26591;43.264;26.940;2022-07-06T02:23:44;6.72;;;3.65;;
40871;SDS011;26591;43.264;26.940;2022-07-06T02:26:10;6.20;;;3.63;;
40871;SDS011;26591;43.264;26.940;2022-07-06T02:28:36;7.90;;;3.83;;
40871;SDS011;26591;43.264;26.940;2022-07-06T02:31:01;8.00;;;3.88;;
40871;SDS011;26591;43.264;26.940;2022-07-06T02:33:27;13.45;;;4.68;;
40871;SDS011;26591;43.264;26.940;2022-07-06T02:35:52;7.13;;;3.83;;
40871;SDS011;26591;43.264;26.940;2022-07-06T02:38:18;7.07;;;4.00;;
40871;SDS011;26591;43.264;26.940;2022-07-06T02:40:43;14.38;;;4.18;;
40871;SDS011;26591;43.264;26.940;2022-07-06T02:43:09;14.15;;;3.92;;
40871;SDS011;26591;43.264;26.940;2022-07-06T02:45:35;7.70;;;3.75;;
40871;SDS011;26591;43.264;26.940;2022-07-06T02:48:00;12.05;;;3.97;;
40871;SDS011;26591;43.264;26.940;2022-07-06T02:50:26;6.97;;;3.78;;
40871;SDS011;26591;43.264;26.940;2022-07-06T02:52:51;11.13;;;4.00;;
40871;SDS011;26591;43.264;26.940;2022-07-06T02:55:17;13.55;;;4.15;;
40871;SDS011;26591;43.264;26.940;2022-07-06T02:57:43;8.95;;;4.18;;
40871;SDS011;26591;43.264;26.940;2022-07-06T03:00:08;7.38;;;4.28;;
40871;SDS011;26591;43.264;26.940;2022-07-06T03:02:35;10.80;;;4.43;;
40871;SDS011;26591;43.264;26.940;2022-07-06T03:05:01;14.95;;;4.10;;
40871;SDS011;26591;43.264;26.940;2022-07-06T03:07:27;11.73;;;4.00;;
40871;SDS011;26591;43.264;26.940;2022-07-06T03:09:53;12.77;;;4.45;;
40871;SDS011;26591;43.264;26.940;2022-07-06T03:12:18;11.68;;;4.15;;
40871;SDS011;26591;43.264;26.940;2022-07-06T03:14:44;12.23;;;5.35;;
40871;SDS011;26591;43.264;26.940;2022-07-06T03:17:09;9.95;;;3.90;;
40871;SDS011;26591;43.264;26.940;2022-07-06T03:19:37;16.95;;;4.82;;
40871;SDS011;26591;43.264;26.940;2022-07-06T03:22:02;15.55;;;5.18;;
40871;SDS011;26591;43.264;26.940;2022-07-06T03:24:28;8.95;;;4.63;;
40871;SDS011;26591;43.264;26.940;2022-07-06T03:26:54;11.48;;;4.40;;
40871;SDS011;26591;43.264;26.940;2022-07-06T03:29:19;9.55;;;4.13;;
40871;SDS011;26591;43.264;26.940;2022-07-06T03:31:45;12.85;;;4.25;;
40871;SDS011;26591;43.264;26.940;2022-07-06T03:34:11;11.52;;;3.80;;
40871;SDS011;26591;43.264;26.940;2022-07-06T03:36:37;22.33;;;4.88;;
40871;SDS011;26591;43.264;26.940;2022-07-06T03:39:03;8.73;;;4.28;;
40871;SDS011;26591;43.264;26.940;2022-07-06T03:41:29;14.50;;;4.40;;
40871;SDS011;26591;43.264;26.940;2022-07-06T03:43:54;15.20;;;4.50;;
40871;SDS011;26591;43.264;26.940;2022-07-06T03:46:20;14.63;;;5.15;;
40871;SDS011;26591;43.264;26.940;2022-07-06T03:48:46;16.40;;;4.43;;
40871;SDS011;26591;43.264;26.940;2022-07-06T03:51:12;18.63;;;4.55;;
40871;SDS011;26591;43.264;26.940;2022-07-06T03:53:38;9.95;;;4.32;;
40871;SDS011;26591;43.264;26.940;2022-07-06T03:56:03;11.93;;;4.38;;
40871;SDS011;26591;43.264;26.940;2022-07-06T03:58:47;16.70;;;4.70;;
40871;SDS011;26591;43.264;26.940;2022-07-06T04:01:13;13.93;;;4.13;;
40871;SDS011;26591;43.264;26.940;2022-07-06T04:03:39;17.08;;;5.03;;
40871;SDS011;26591;43.264;26.940;2022-07-06T04:06:05;15.45;;;4.88;;
40871;SDS011;26591;43.264;26.940;2022-07-06T04:08:30;16.92;;;5.85;;
40871;SDS011;26591;43.264;26.940;2022-07-06T04:10:56;18.45;;;4.97;;
40871;SDS011;26591;43.264;26.940;2022-07-06T04:13:21;17.33;;;4.63;;
40871;SDS011;26591;43.264;26.940;2022-07-06T04:15:48;17.02;;;4.63;;
40871;SDS011;26591;43.264;26.940;2022-07-06T04:18:14;16.52;;;4.80;;
40871;SDS011;26591;43.264;26.940;2022-07-06T04:20:39;10.77;;;4.60;;
40871;SDS011;26591;43.264;26.940;2022-07-06T04:23:05;11.23;;;4.75;;
40871;SDS011;26591;43.264;26.940;2022-07-06T04:25:32;15.90;;;4.85;;
40871;SDS011;26591;43.264;26.940;2022-07-06T04:27:58;14.55;;;4.72;;
40871;SDS011;26591;43.264;26.940;2022-07-06T04:30:23;14.52;;;5.03;;
40871;SDS011;26591;43.264;26.940;2022-07-06T04:32:49;13.05;;;4.88;;
40871;SDS011;26591;43.264;26.940;2022-07-06T04:35:15;14.35;;;4.60;;
40871;SDS011;26591;43.264;26.940;2022-07-06T04:37:40;11.43;;;4.47;;
40871;SDS011;26591;43.264;26.940;2022-07-06T04:40:06;11.32;;;4.55;;
40871;SDS011;26591;43.264;26.940;2022-07-06T04:42:32;13.20;;;4.50;;
40871;SDS011;26591;43.264;26.940;2022-07-06T04:44:58;14.45;;;6.70;;
40871;SDS011;26591;43.264;26.940;2022-07-06T04:47:23;27.17;;;6.05;;
40871;SDS011;26591;43.264;26.940;2022-07-06T04:49:49;21.42;;;5.30;;
40871;SDS011;26591;43.264;26.940;2022-07-06T04:52:14;9.90;;;5.30;;
40871;SDS011;26591;43.264;26.940;2022-07-06T04:54:41;14.52;;;5.10;;
40871;SDS011;26591;43.264;26.940;2022-07-06T04:57:07;24.42;;;5.95;;
40871;SDS011;26591;43.264;26.940;2022-07-06T04:59:32;16.10;;;4.95;;
40871;SDS011;26591;43.264;26.940;2022-07-06T05:01:58;14.43;;;5.70;;
40871;SDS011;26591;43.264;26.940;2022-07-06T05:04:23;15.05;;;5.45;;
40871;SDS011;26591;43.264;26.940;2022-07-06T05:06:50;15.02;;;5.40;;
40871;SDS011;26591;43.264;26.940;2022-07-06T05:09:16;16.20;;;5.65;;
40871;SDS011;26591;43.264;26.940;2022-07-06T05:11:41;16.77;;;5.45;;
40871;SDS011;26591;43.264;26.940;2022-07-06T05:14:07;28.33;;;5.63;;
40871;SDS011;26591;43.264;26.940;2022-07-06T05:16:32;14.32;;;4.63;;
40871;SDS011;26591;43.264;26.940;2022-07-06T05:18:58;17.00;;;5.25;;
40871;SDS011;26591;43.264;26.940;2022-07-06T05:21:24;13.18;;;5.22;;
40871;SDS011;26591;43.264;26.940;2022-07-06T05:23:50;15.05;;;5.00;;
40871;SDS011;26591;43.264;26.940;2022-07-06T05:26:15;18.55;;;5.40;;
40871;SDS011;26591;43.264;26.940;2022-07-06T05:28:41;14.38;;;5.30;;
40871;SDS011;26591;43.264;26.940;2022-07-06T05:31:07;21.67;;;5.00;;
40871;SDS011;26591;43.264;26.940;2022-07-06T05:33:33;12.73;;;4.40;;
40871;SDS011;26591;43.264;26.940;2022-07-06T05:35:58;13.95;;;4.00;;
40871;SDS011;26591;43.264;26.940;2022-07-06T05:38:24;14.55;;;4.80;;
40871;SDS011;26591;43.264;26.940;2022-07-06T05:40:50;18.83;;;5.05;;
40871;SDS011;26591;43.264;26.940;2022-07-06T05:43:16;16.38;;;4.93;;
40871;SDS011;26591;43.264;26.940;2022-07-06T05:45:42;12.45;;;4.60;;
40871;SDS011;26591;43.264;26.940;2022-07-06T05:48:08;22.42;;;4.60;;
40871;SDS011;26591;43.264;26.940;2022-07-06T05:50:52;14.00;;;5.28;;
40871;SDS011;26591;43.264;26.940;2022-07-06T05:53:20;13.30;;;4.90;;
40871;SDS011;26591;43.264;26.940;2022-07-06T05:55:46;16.20;;;4.63;;
40871;SDS011;26591;43.264;26.940;2022-07-06T05:58:12;30.60;;;5.68;;
40871;SDS011;26591;43.264;26.940;2022-07-06T06:00:39;12.88;;;4.78;;
40871;SDS011;26591;43.264;26.940;2022-07-06T06:03:04;15.60;;;5.53;;
40871;SDS011;26591;43.264;26.940;2022-07-06T06:05:30;19.52;;;5.20;;
40871;SDS011;26591;43.264;26.940;2022-07-06T06:07:55;21.90;;;5.40;;
40871;SDS011;26591;43.264;26.940;2022-07-06T06:10:27;30.33;;;6.40;;
40871;SDS011;26591;43.264;26.940;2022-07-06T06:12:53;18.40;;;5.40;;
40871;SDS011;26591;43.264;26.940;2022-07-06T06:15:18;16.45;;;4.85;;
40871;SDS011;26591;43.264;26.940;2022-07-06T06:17:44;9.35;;;4.90;;
40871;SDS011;26591;43.264;26.940;2022-07-06T06:20:11;15.63;;;6.00;;
40871;SDS011;26591;43.264;26.940;2022-07-06T06:22:51;18.48;;;5.60;;
40871;SDS011;26591;43.264;26.940;2022-07-06T06:25:26;19.20;;;5.65;;
40871;SDS011;26591;43.264;26.940;2022-07-06T06:27:54;11.60;;;5.22;;
40871;SDS011;26591;43.264;26.940;2022-07-06T06:30:20;18.17;;;5.40;;
40871;SDS011;26591;43.264;26.940;2022-07-06T06:32:45;19.63;;;5.45;;
40871;SDS011;26591;43.264;26.940;2022-07-06T06:35:11;21.98;;;5.53;;
40871;SDS011;26591;43.264;26.940;2022-07-06T06:37:36;16.85;;;5.70;;
40871;SDS011;26591;43.264;26.940;2022-07-06T06:40:03;18.13;;;6.45;;
40871;SDS011;26591;43.264;26.940;2022-07-06T06:42:30;19.88;;;5.18;;
40871;SDS011;26591;43.264;26.940;2022-07-06T06:44:56;16.70;;;5.50;;
40871;SDS011;26591;43.264;26.940;2022-07-06T06:47:21;19.75;;;6.50;;
40871;SDS011;26591;43.264;26.940;2022-07-06T06:49:47;14.25;;;5.90;;
40871;SDS011;26591;43.264;26.940;2022-07-06T06:52:13;13.48;;;5.18;;
40871;SDS011;26591;43.264;26.940;2022-07-06T06:54:39;9.45;;;5.70;;
40871;SDS011;26591;43.264;26.940;2022-07-06T06:57:04;14.23;;;5.53;;
40871;SDS011;26591;43.264;26.940;2022-07-06T06:59:30;17.88;;;5.63;;
40871;SDS011;26591;43.264;26.940;2022-07-06T07:01:55;13.25;;;5.72;;
40871;SDS011;26591;43.264;26.940;2022-07-06T07:04:21;11.02;;;5.20;;
40871;SDS011;26591;43.264;26.940;2022-07-06T07:06:47;11.50;;;5.65;;
40871;SDS011;26591;43.264;26.940;2022-07-06T07:09:12;11.18;;;5.00;;
40871;SDS011;26591;43.264;26.940;2022-07-06T07:11:38;9.18;;;4.93;;
40871;SDS011;26591;43.264;26.940;2022-07-06T07:14:03;12.98;;;5.50;;
40871;SDS011;26591;43.264;26.940;2022-07-06T07:16:29;13.27;;;5.63;;
40871;SDS011;26591;43.264;26.940;2022-07-06T07:18:55;13.68;;;6.38;;
40871;SDS011;26591;43.264;26.940;2022-07-06T07:21:20;18.77;;;6.68;;
40871;SDS011;26591;43.264;26.940;2022-07-06T07:23:46;13.02;;;5.63;;
40871;SDS011;26591;43.264;26.940;2022-07-06T07:26:12;10.00;;;5.65;;
40871;SDS011;26591;43.264;26.940;2022-07-06T07:28:37;18.73;;;5.97;;
40871;SDS011;26591;43.264;26.940;2022-07-06T07:31:04;10.40;;;5.88;;
40871;SDS011;26591;43.264;26.940;2022-07-06T07:33:29;14.73;;;6.30;;
40871;SDS011;26591;43.264;26.940;2022-07-06T07:35:55;11.75;;;6.22;;
40871;SDS011;26591;43.264;26.940;2022-07-06T07:38:21;11.60;;;5.38;;
40871;SDS011;26591;43.264;26.940;2022-07-06T07:40:46;11.93;;;6.22;;
40871;SDS011;26591;43.264;26.940;2022-07-06T07:43:12;15.10;;;6.18;;
40871;SDS011;26591;43.264;26.940;2022-07-06T07:45:37;14.65;;;6.15;;
40871;SDS011;26591;43.264;26.940;2022-07-06T07:48:03;12.57;;;5.53;;
40871;SDS011;26591;43.264;26.940;2022-07-06T07:50:29;14.55;;;5.55;;
40871;SDS011;26591;43.264;26.940;2022-07-06T07:52:54;11.38;;;5.80;;
40871;SDS011;26591;43.264;26.940;2022-07-06T07:58:04;10.50;;;5.88;;
40871;SDS011;26591;43.264;26.940;2022-07-06T08:00:31;16.13;;;6.03;;
40871;SDS011;26591;43.264;26.940;2022-07-06T08:02:56;9.02;;;5.50;;
40871;SDS011;26591;43.264;26.940;2022-07-06T08:05:22;13.73;;;5.60;;
40871;SDS011;26591;43.264;26.940;2022-07-06T08:07:47;11.25;;;5.85;;
40871;SDS011;26591;43.264;26.940;2022-07-06T08:10:13;15.73;;;5.70;;
40871;SDS011;26591;43.264;26.940;2022-07-06T08:12:39;11.07;;;5.68;;
40871;SDS011;26591;43.264;26.940;2022-07-06T08:15:05;13.45;;;5.38;;
40871;SDS011;26591;43.264;26.940;2022-07-06T08:17:31;9.23;;;5.32;;
40871;SDS011;26591;43.264;26.940;2022-07-06T08:19:57;9.68;;;5.85;;
40871;SDS011;26591;43.264;26.940;2022-07-06T08:22:22;13.50;;;5.63;;
40871;SDS011;26591;43.264;26.940;2022-07-06T08:24:48;15.10;;;4.80;;
40871;SDS011;26591;43.264;26.940;2022-07-06T08:27:14;8.98;;;4.60;;
40871;SDS011;26591;43.264;26.940;2022-07-06T08:29:40;12.68;;;5.32;;
40871;SDS011;26591;43.264;26.940;2022-07-06T08:32:05;4.22;;;3.30;;
40871;SDS011;26591;43.264;26.940;2022-07-06T08:34:31;18.20;;;4.53;;
40871;SDS011;26591;43.264;26.940;2022-07-06T08:36:57;7.78;;;3.40;;
40871;SDS011;26591;43.264;26.940;2022-07-06T08:39:23;5.88;;;3.00;;
40871;SDS011;26591;43.264;26.940;2022-07-06T08:41:49;4.75;;;3.30;;
40871;SDS011;26591;43.264;26.940;2022-07-06T08:44:16;9.77;;;3.10;;
40871;SDS011;26591;43.264;26.940;2022-07-06T08:46:43;5.80;;;3.35;;
40871;SDS011;26591;43.264;26.940;2022-07-06T08:49:12;5.30;;;3.25;;
40871;SDS011;26591;43.264;26.940;2022-07-06T08:51:38;7.00;;;3.88;;
40871;SDS011;26591;43.264;26.940;2022-07-06T08:54:05;12.32;;;3.50;;
40871;SDS011;26591;43.264;26.940;2022-07-06T08:56:33;12.90;;;4.75;;
40871;SDS011;26591;43.264;26.940;2022-07-06T08:58:58;8.65;;;4.28;;
40871;SDS011;26591;43.264;26.940;2022-07-06T09:01:24;7.10;;;3.90;;
40871;SDS011;26591;43.264;26.940;2022-07-06T09:03:50;7.95;;;3.83;;
40871;SDS011;26591;43.264;26.940;2022-07-06T09:06:25;6.78;;;4.00;;
40871;SDS011;26591;43.264;26.940;2022-07-06T09:08:54;5.93;;;3.83;;
40871;SDS011;26591;43.264;26.940;2022-07-06T09:11:22;11.88;;;4.07;;
40871;SDS011;26591;43.264;26.940;2022-07-06T09:13:50;6.07;;;3.83;;
40871;SDS011;26591;43.264;26.940;2022-07-06T09:16:16;5.35;;;3.65;;
40871;SDS011;26591;43.264;26.940;2022-07-06T09:18:46;5.05;;;3.75;;
40871;SDS011;26591;43.264;26.940;2022-07-06T09:23:47;4.43;;;3.55;;
40871;SDS011;26591;43.264;26.940;2022-07-06T09:26:19;9.27;;;3.75;;
40871;SDS011;26591;43.264;26.940;2022-07-06T09:28:44;7.43;;;3.85;;
40871;SDS011;26591;43.264;26.940;2022-07-06T09:31:13;8.18;;;3.70;;
40871;SDS011;26591;43.264;26.940;2022-07-06T09:33:52;7.50;;;3.30;;
40871;SDS011;26591;43.264;26.940;2022-07-06T09:39:27;6.65;;;4.43;;
40871;SDS011;26591;43.264;26.940;2022-07-06T09:41:56;4.75;;;3.30;;
40871;SDS011;26591;43.264;26.940;2022-07-06T09:44:28;6.72;;;3.72;;
40871;SDS011;26591;43.264;26.940;2022-07-06T09:46:55;13.90;;;3.70;;
40871;SDS011;26591;43.264;26.940;2022-07-06T09:49:23;6.30;;;3.33;;
40871;SDS011;26591;43.264;26.940;2022-07-06T09:51:52;4.72;;;3.35;;
40871;SDS011;26591;43.264;26.940;2022-07-06T09:54:22;10.15;;;3.50;;
40871;SDS011;26591;43.264;26.940;2022-07-06T09:56:49;7.68;;;3.53;;
40871;SDS011;26591;43.264;26.940;2022-07-06T09:59:17;7.43;;;3.60;;
40871;SDS011;26591;43.264;26.940;2022-07-06T10:01:44;8.23;;;3.55;;
40871;SDS011;26591;43.264;26.940;2022-07-06T10:04:11;7.82;;;3.47;;
40871;SDS011;26591;43.264;26.940;2022-07-06T10:06:38;11.02;;;3.38;;
40871;SDS011;26591;43.264;26.940;2022-07-06T10:09:06;8.40;;;4.30;;
40871;SDS011;26591;43.264;26.940;2022-07-06T10:11:39;6.60;;;3.70;;
40871;SDS011;26591;43.264;26.940;2022-07-06T10:14:09;7.43;;;3.65;;
40871;SDS011;26591;43.264;26.940;2022-07-06T10:16:37;8.30;;;3.58;;
40871;SDS011;26591;43.264;26.940;2022-07-06T10:19:05;4.47;;;3.78;;
40871;SDS011;26591;43.264;26.940;2022-07-06T10:21:31;5.15;;;3.97;;
40871;SDS011;26591;43.264;26.940;2022-07-06T10:23:58;10.65;;;3.90;;
40871;SDS011;26591;43.264;26.940;2022-07-06T10:26:26;6.25;;;3.97;;
40871;SDS011;26591;43.264;26.940;2022-07-06T10:28:52;8.23;;;3.75;;
40871;SDS011;26591;43.264;26.940;2022-07-06T10:31:18;9.68;;;3.95;;
40871;SDS011;26591;43.264;26.940;2022-07-06T10:33:45;9.70;;;3.85;;
40871;SDS011;26591;43.264;26.940;2022-07-06T10:36:11;9.18;;;4.35;;
40871;SDS011;26591;43.264;26.940;2022-07-06T10:38:38;5.43;;;4.03;;
40871;SDS011;26591;43.264;26.940;2022-07-06T10:41:05;7.25;;;3.67;;
40871;SDS011;26591;43.264;26.940;2022-07-06T10:43:35;8.00;;;4.60;;
40871;SDS011;26591;43.264;26.940;2022-07-06T10:46:09;11.05;;;4.53;;
40871;SDS011;26591;43.264;26.940;2022-07-06T10:48:45;4.95;;;4.25;;
40871;SDS011;26591;43.264;26.940;2022-07-06T10:51:13;10.35;;;4.50;;
40871;SDS011;26591;43.264;26.940;2022-07-06T10:53:49;10.18;;;5.10;;
40871;SDS011;26591;43.264;26.940;2022-07-06T10:56:31;6.25;;;4.45;;
40871;SDS011;26591;43.264;26.940;2022-07-06T10:59:01;7.78;;;4.85;;
40871;SDS011;26591;43.264;26.940;2022-07-06T11:01:37;8.73;;;5.00;;
40871;SDS011;26591;43.264;26.940;2022-07-06T11:06:31;7.97;;;5.05;;
40871;SDS011;26591;43.264;26.940;2022-07-06T11:14:05;8.23;;;4.82;;
40871;SDS011;26591;43.264;26.940;2022-07-06T11:17:13;5.78;;;4.38;;
40871;SDS011;26591;43.264;26.940;2022-07-06T11:19:35;8.48;;;5.35;;
40871;SDS011;26591;43.264;26.940;2022-07-06T11:22:05;9.70;;;4.25;;
40871;SDS011;26591;43.264;26.940;2022-07-06T11:24:33;12.35;;;4.50;;
40871;SDS011;26591;43.264;26.940;2022-07-06T11:27:00;7.57;;;4.30;;
40871;SDS011;26591;43.264;26.940;2022-07-06T11:29:27;9.25;;;4.35;;
40871;SDS011;26591;43.264;26.940;2022-07-06T11:31:54;9.23;;;4.45;;
40871;SDS011;26591;43.264;26.940;2022-07-06T11:34:22;7.57;;;4.35;;
40871;SDS011;26591;43.264;26.940;2022-07-06T11:37:12;6.85;;;4.10;;
40871;SDS011;26591;43.264;26.940;2022-07-06T11:39:39;7.85;;;3.92;;
40871;SDS011;26591;43.264;26.940;2022-07-06T11:42:08;4.93;;;4.22;;
40871;SDS011;26591;43.264;26.940;2022-07-06T11:44:34;7.28;;;4.55;;
40871;SDS011;26591;43.264;26.940;2022-07-06T11:47:01;9.65;;;4.13;;
40871;SDS011;26591;43.264;26.940;2022-07-06T11:49:29;6.47;;;4.03;;
40871;SDS011;26591;43.264;26.940;2022-07-06T11:51:56;8.02;;;4.55;;
40871;SDS011;26591;43.264;26.940;2022-07-06T11:54:22;7.32;;;4.47;;
40871;SDS011;26591;43.264;26.940;2022-07-06T11:56:52;9.23;;;4.18;;
40871;SDS011;26591;43.264;26.940;2022-07-06T11:59:24;7.82;;;4.10;;
40871;SDS011;26591;43.264;26.940;2022-07-06T12:02:07;9.02;;;4.90;;
40871;SDS011;26591;43.264;26.940;2022-07-06T12:04:41;5.30;;;4.60;;
40871;SDS011;26591;43.264;26.940;2022-07-06T12:07:09;7.22;;;4.78;;
40871;SDS011;26591;43.264;26.940;2022-07-06T12:09:37;5.97;;;4.37;;
40871;SDS011;26591;43.264;26.940;2022-07-06T12:12:05;8.35;;;4.38;;
40871;SDS011;26591;43.264;26.940;2022-07-06T12:14:32;9.15;;;4.68;;
40871;SDS011;26591;43.264;26.940;2022-07-06T12:17:02;7.05;;;4.40;;
40871;SDS011;26591;43.264;26.940;2022-07-06T12:19:30;9.68;;;4.68;;
40871;SDS011;26591;43.264;26.940;2022-07-06T12:21:55;9.20;;;4.55;;
40871;SDS011;26591;43.264;26.940;2022-07-06T12:24:25;5.45;;;3.88;;
40871;SDS011;26591;43.264;26.940;2022-07-06T12:26:53;10.15;;;4.63;;
40871;SDS011;26591;43.264;26.940;2022-07-06T12:29:20;8.90;;;4.30;;
40871;SDS011;26591;43.264;26.940;2022-07-06T12:34:16;9.15;;;4.22;;
40871;SDS011;26591;43.264;26.940;2022-07-06T12:40:11;6.45;;;4.00;;
40871;SDS011;26591;43.264;26.940;2022-07-06T12:45:51;10.07;;;4.50;;
40871;SDS011;26591;43.264;26.940;2022-07-06T12:48:16;9.88;;;4.47;;
40871;SDS011;26591;43.264;26.940;2022-07-06T12:50:42;7.75;;;4.30;;
40871;SDS011;26591;43.264;26.940;2022-07-06T12:53:23;9.52;;;5.10;;
40871;SDS011;26591;43.264;26.940;2022-07-06T12:56:07;9.55;;;4.68;;
40871;SDS011;26591;43.264;26.940;2022-07-06T12:58:36;8.05;;;4.30;;
40871;SDS011;26591;43.264;26.940;2022-07-06T13:01:02;9.13;;;4.70;;
40871;SDS011;26591;43.264;26.940;2022-07-06T13:03:27;9.70;;;4.47;;
40871;SDS011;26591;43.264;26.940;2022-07-06T13:05:53;5.90;;;4.40;;
40871;SDS011;26591;43.264;26.940;2022-07-06T13:08:18;6.28;;;4.25;;
40871;SDS011;26591;43.264;26.940;2022-07-06T13:10:44;11.65;;;4.95;;
40871;SDS011;26591;43.264;26.940;2022-07-06T13:13:10;10.25;;;4.43;;
40871;SDS011;26591;43.264;26.940;2022-07-06T13:15:35;5.95;;;4.50;;
40871;SDS011;26591;43.264;26.940;2022-07-06T13:18:01;9.88;;;4.30;;
40871;SDS011;26591;43.264;26.940;2022-07-06T13:20:27;8.02;;;4.70;;
40871;SDS011;26591;43.264;26.940;2022-07-06T13:22:54;6.70;;;4.22;;
40871;SDS011;26591;43.264;26.940;2022-07-06T13:25:19;10.82;;;4.60;;
40871;SDS011;26591;43.264;26.940;2022-07-06T13:27:45;11.05;;;4.32;;
40871;SDS011;26591;43.264;26.940;2022-07-06T13:30:10;8.32;;;4.78;;
40871;SDS011;26591;43.264;26.940;2022-07-06T13:32:37;6.50;;;4.32;;
40871;SDS011;26591;43.264;26.940;2022-07-06T13:35:04;7.65;;;4.88;;
40871;SDS011;26591;43.264;26.940;2022-07-06T13:37:31;10.02;;;4.75;;
40871;SDS011;26591;43.264;26.940;2022-07-06T13:39:58;8.43;;;4.38;;
40871;SDS011;26591;43.264;26.940;2022-07-06T13:42:23;9.90;;;4.60;;
40871;SDS011;26591;43.264;26.940;2022-07-06T13:44:49;6.78;;;4.75;;
40871;SDS011;26591;43.264;26.940;2022-07-06T13:47:14;8.77;;;4.72;;
40871;SDS011;26591;43.264;26.940;2022-07-06T13:49:40;13.00;;;4.93;;
40871;SDS011;26591;43.264;26.940;2022-07-06T13:52:07;10.43;;;4.18;;
40871;SDS011;26591;43.264;26.940;2022-07-06T13:54:33;13.48;;;5.32;;
40871;SDS011;26591;43.264;26.940;2022-07-06T13:57:02;12.80;;;5.22;;
40871;SDS011;26591;43.264;26.940;2022-07-06T13:59:29;7.32;;;4.53;;
40871;SDS011;26591;43.264;26.940;2022-07-06T14:01:55;8.07;;;4.70;;
40871;SDS011;26591;43.264;26.940;2022-07-06T14:04:21;13.30;;;4.80;;
40871;SDS011;26591;43.264;26.940;2022-07-06T14:06:46;10.45;;;4.82;;
40871;SDS011;26591;43.264;26.940;2022-07-06T14:09:12;20.45;;;5.63;;
40871;SDS011;26591;43.264;26.940;2022-07-06T14:11:38;8.43;;;4.75;;
40871;SDS011;26591;43.264;26.940;2022-07-06T14:14:03;9.50;;;5.00;;
40871;SDS011;26591;43.264;26.940;2022-07-06T14:16:32;17.67;;;5.40;;
40871;SDS011;26591;43.264;26.940;2022-07-06T14:18:59;8.32;;;4.65;;
40871;SDS011;26591;43.264;26.940;2022-07-06T14:21:25;9.88;;;4.72;;
40871;SDS011;26591;43.264;26.940;2022-07-06T14:23:51;11.20;;;5.03;;
40871;SDS011;26591;43.264;26.940;2022-07-06T14:26:16;10.20;;;4.88;;
40871;SDS011;26591;43.264;26.940;2022-07-06T14:28:42;8.10;;;5.20;;
40871;SDS011;26591;43.264;26.940;2022-07-06T14:31:08;16.48;;;5.72;;
40871;SDS011;26591;43.264;26.940;2022-07-06T14:33:34;7.93;;;5.60;;
40871;SDS011;26591;43.264;26.940;2022-07-06T14:35:59;8.55;;;5.05;;
40871;SDS011;26591;43.264;26.940;2022-07-06T14:38:25;11.20;;;5.47;;
40871;SDS011;26591;43.264;26.940;2022-07-06T14:40:52;13.02;;;4.60;;
40871;SDS011;26591;43.264;26.940;2022-07-06T14:43:18;11.20;;;5.00;;
40871;SDS011;26591;43.264;26.940;2022-07-06T14:45:44;9.18;;;5.38;;
40871;SDS011;26591;43.264;26.940;2022-07-06T14:48:10;11.88;;;4.70;;
40871;SDS011;26591;43.264;26.940;2022-07-06T14:50:36;10.18;;;4.70;;
40871;SDS011;26591;43.264;26.940;2022-07-06T14:53:02;9.40;;;5.00;;